sensor_id;sensor_type;location;lat;lon;timestamp;P1;durP1;ratioP1;P2;durP2;ratioP2
23086;SDS011;11712;51.134;4.156;2022-09-01T00:00:47;0.40;;;0.40;;
23086;SDS011;11712;51.134;4.156;2022-09-01T00:03:17;0.40;;;0.40;;
23086;SDS011;11712;51.134;4.156;2022-09-01T00:05:44;0.40;;;0.40;;
23086;SDS011;11712;51.134;4.156;2022-09-01T00:08:10;0.30;;;0.30;;
23086;SDS011;11712;51.134;4.156;2022-09-01T00:10:36;0.30;;;0.30;;
23086;SDS011;11712;51.134;4.156;2022-09-01T00:13:03;0.40;;;0.40;;
23086;SDS011;11712;51.134;4.156;2022-09-01T00:15:31;0.40;;;0.40;;
23086;SDS011;11712;51.134;4.156;2022-09-01T00:17:58;0.40;;;0.40;;
23086;SDS011;11712;51.134;4.156;2022-09-01T00:20:24;0.40;;;0.40;;
23086;SDS011;11712;51.134;4.156;2022-09-01T00:22:49;0.40;;;0.40;;
23086;SDS011;11712;51.134;4.156;2022-09-01T00:25:16;0.38;;;0.38;;
23086;SDS011;11712;51.134;4.156;2022-09-01T00:27:44;0.40;;;0.40;;
23086;SDS011;11712;51.134;4.156;2022-09-01T00:30:10;0.40;;;0.40;;
23086;SDS011;11712;51.134;4.156;2022-09-01T00:32:36;0.40;;;0.40;;
23086;SDS011;11712;51.134;4.156;2022-09-01T00:35:02;0.40;;;0.40;;
23086;SDS011;11712;51.134;4.156;2022-09-01T00:37:29;0.40;;;0.40;;
23086;SDS011;11712;51.134;4.156;2022-09-01T00:39:55;0.40;;;0.40;;
23086;SDS011;11712;51.134;4.156;2022-09-01T00:42:20;0.30;;;0.30;;
23086;SDS011;11712;51.134;4.156;2022-09-01T00:44:46;0.40;;;0.40;;
23086;SDS011;11712;51.134;4.156;2022-09-01T00:47:12;0.40;;;0.40;;
23086;SDS011;11712;51.134;4.156;2022-09-01T00:49:40;0.40;;;0.40;;
23086;SDS011;11712;51.134;4.156;2022-09-01T00:52:10;0.40;;;0.40;;
23086;SDS011;11712;51.134;4.156;2022-09-01T00:54:44;0.40;;;0.40;;
23086;SDS011;11712;51.134;4.156;2022-09-01T00:57:13;0.40;;;0.40;;
23086;SDS011;11712;51.134;4.156;2022-09-01T00:59:46;0.40;;;0.40;;
23086;SDS011;11712;51.134;4.156;2022-09-01T01:02:17;0.40;;;0.40;;
23086;SDS011;11712;51.134;4.156;2022-09-01T01:04:42;0.35;;;0.35;;
23086;SDS011;11712;51.134;4.156;2022-09-01T01:07:08;0.40;;;0.40;;
23086;SDS011;11712;51.134;4.156;2022-09-01T01:09:35;0.40;;;0.40;;
23086;SDS011;11712;51.134;4.156;2022-09-01T01:12:05;0.38;;;0.38;;
23086;SDS011;11712;51.134;4.156;2022-09-01T01:14:36;0.40;;;0.40;;
23086;SDS011;11712;51.134;4.156;2022-09-01T01:17:03;0.40;;;0.40;;
23086;SDS011;11712;51.134;4.156;2022-09-01T01:22:26;0.40;;;0.40;;
23086;SDS011;11712;51.134;4.156;2022-09-01T01:25:14;0.40;;;0.40;;
23086;SDS011;11712;51.134;4.156;2022-09-01T01:27:42;0.30;;;0.30;;
23086;SDS011;11712;51.134;4.156;2022-09-01T01:30:07;0.40;;;0.40;;
23086;SDS011;11712;51.134;4.156;2022-09-01T01:32:36;0.40;;;0.40;;
23086;SDS011;11712;51.134;4.156;2022-09-01T01:35:04;0.40;;;0.40;;
23086;SDS011;11712;51.134;4.156;2022-09-01T01:37:33;0.40;;;0.40;;
23086;SDS011;11712;51.134;4.156;2022-09-01T01:39:59;0.40;;;0.40;;
23086;SDS011;11712;51.134;4.156;2022-09-01T01:42:25;0.40;;;0.40;;
23086;SDS011;11712;51.134;4.156;2022-09-01T01:44:52;0.40;;;0.40;;
23086;SDS011;11712;51.134;4.156;2022-09-01T01:47:18;0.40;;;0.40;;
23086;SDS011;11712;51.134;4.156;2022-09-01T01:49:44;0.30;;;0.30;;
23086;SDS011;11712;51.134;4.156;2022-09-01T01:52:11;0.40;;;0.40;;
23086;SDS011;11712;51.134;4.156;2022-09-01T01:54:44;0.32;;;0.32;;
23086;SDS011;11712;51.134;4.156;2022-09-01T01:57:10;0.40;;;0.40;;
23086;SDS011;11712;51.134;4.156;2022-09-01T01:59:42;0.30;;;0.30;;
23086;SDS011;11712;51.134;4.156;2022-09-01T02:02:08;0.40;;;0.40;;
23086;SDS011;11712;51.134;4.156;2022-09-01T02:04:36;0.40;;;0.40;;
23086;SDS011;11712;51.134;4.156;2022-09-01T02:07:04;0.35;;;0.35;;
23086;SDS011;11712;51.134;4.156;2022-09-01T02:09:36;0.40;;;0.40;;
23086;SDS011;11712;51.134;4.156;2022-09-01T02:12:05;0.40;;;0.40;;
23086;SDS011;11712;51.134;4.156;2022-09-01T02:14:32;0.40;;;0.40;;
23086;SDS011;11712;51.134;4.156;2022-09-01T02:16:58;0.40;;;0.40;;
23086;SDS011;11712;51.134;4.156;2022-09-01T02:19:25;0.40;;;0.40;;
23086;SDS011;11712;51.134;4.156;2022-09-01T02:21:51;0.40;;;0.40;;
23086;SDS011;11712;51.134;4.156;2022-09-01T02:24:20;0.40;;;0.40;;
23086;SDS011;11712;51.134;4.156;2022-09-01T02:26:48;0.40;;;0.40;;
23086;SDS011;11712;51.134;4.156;2022-09-01T02:29:16;0.40;;;0.40;;
23086;SDS011;11712;51.134;4.156;2022-09-01T02:31:45;0.40;;;0.40;;
23086;SDS011;11712;51.134;4.156;2022-09-01T02:34:13;0.40;;;0.40;;
23086;SDS011;11712;51.134;4.156;2022-09-01T02:36:43;0.50;;;0.50;;
23086;SDS011;11712;51.134;4.156;2022-09-01T02:39:13;0.40;;;0.40;;
23086;SDS011;11712;51.134;4.156;2022-09-01T02:41:44;0.50;;;0.50;;
23086;SDS011;11712;51.134;4.156;2022-09-01T02:44:10;0.40;;;0.40;;
23086;SDS011;11712;51.134;4.156;2022-09-01T02:46:37;0.40;;;0.40;;
23086;SDS011;11712;51.134;4.156;2022-09-01T02:49:06;0.40;;;0.40;;
23086;SDS011;11712;51.134;4.156;2022-09-01T02:51:39;0.40;;;0.40;;
23086;SDS011;11712;51.134;4.156;2022-09-01T02:54:06;0.40;;;0.40;;
23086;SDS011;11712;51.134;4.156;2022-09-01T02:56:32;0.40;;;0.40;;
23086;SDS011;11712;51.134;4.156;2022-09-01T02:58:58;0.40;;;0.40;;
23086;SDS011;11712;51.134;4.156;2022-09-01T03:01:29;0.40;;;0.40;;
23086;SDS011;11712;51.134;4.156;2022-09-01T03:03:58;0.40;;;0.40;;
23086;SDS011;11712;51.134;4.156;2022-09-01T03:06:34;0.40;;;0.40;;
23086;SDS011;11712;51.134;4.156;2022-09-01T03:09:03;0.40;;;0.40;;
23086;SDS011;11712;51.134;4.156;2022-09-01T03:11:34;0.40;;;0.40;;
23086;SDS011;11712;51.134;4.156;2022-09-01T03:14:03;0.40;;;0.40;;
23086;SDS011;11712;51.134;4.156;2022-09-01T03:16:30;0.40;;;0.40;;
23086;SDS011;11712;51.134;4.156;2022-09-01T03:18:57;0.40;;;0.40;;
23086;SDS011;11712;51.134;4.156;2022-09-01T03:21:23;0.40;;;0.40;;
23086;SDS011;11712;51.134;4.156;2022-09-01T03:23:50;0.40;;;0.40;;
23086;SDS011;11712;51.134;4.156;2022-09-01T03:26:17;0.40;;;0.40;;
23086;SDS011;11712;51.134;4.156;2022-09-01T03:28:46;0.40;;;0.40;;
23086;SDS011;11712;51.134;4.156;2022-09-01T03:31:14;0.50;;;0.50;;
23086;SDS011;11712;51.134;4.156;2022-09-01T03:33:40;0.40;;;0.40;;
23086;SDS011;11712;51.134;4.156;2022-09-01T03:36:06;0.40;;;0.40;;
23086;SDS011;11712;51.134;4.156;2022-09-01T03:38:33;0.40;;;0.40;;
23086;SDS011;11712;51.134;4.156;2022-09-01T03:41:00;0.40;;;0.40;;
23086;SDS011;11712;51.134;4.156;2022-09-01T03:43:29;0.40;;;0.40;;
23086;SDS011;11712;51.134;4.156;2022-09-01T03:45:57;0.40;;;0.40;;
23086;SDS011;11712;51.134;4.156;2022-09-01T03:48:27;0.40;;;0.40;;
23086;SDS011;11712;51.134;4.156;2022-09-01T03:50:54;0.40;;;0.40;;
23086;SDS011;11712;51.134;4.156;2022-09-01T03:53:24;0.40;;;0.40;;
23086;SDS011;11712;51.134;4.156;2022-09-01T03:55:51;0.40;;;0.40;;
23086;SDS011;11712;51.134;4.156;2022-09-01T03:58:20;0.40;;;0.40;;
23086;SDS011;11712;51.134;4.156;2022-09-01T04:00:47;0.40;;;0.40;;
23086;SDS011;11712;51.134;4.156;2022-09-01T04:03:17;0.40;;;0.40;;
23086;SDS011;11712;51.134;4.156;2022-09-01T04:05:46;0.40;;;0.40;;
23086;SDS011;11712;51.134;4.156;2022-09-01T04:08:12;0.30;;;0.30;;
23086;SDS011;11712;51.134;4.156;2022-09-01T04:10:42;0.40;;;0.40;;
23086;SDS011;11712;51.134;4.156;2022-09-01T04:13:14;0.40;;;0.40;;
23086;SDS011;11712;51.134;4.156;2022-09-01T04:15:43;0.40;;;0.40;;
23086;SDS011;11712;51.134;4.156;2022-09-01T04:18:09;0.40;;;0.40;;
23086;SDS011;11712;51.134;4.156;2022-09-01T04:20:44;0.40;;;0.40;;
23086;SDS011;11712;51.134;4.156;2022-09-01T04:23:15;0.40;;;0.40;;
23086;SDS011;11712;51.134;4.156;2022-09-01T04:25:55;0.40;;;0.40;;
23086;SDS011;11712;51.134;4.156;2022-09-01T04:28:33;0.40;;;0.40;;
23086;SDS011;11712;51.134;4.156;2022-09-01T04:31:02;0.50;;;0.50;;
23086;SDS011;11712;51.134;4.156;2022-09-01T04:33:33;0.40;;;0.40;;
23086;SDS011;11712;51.134;4.156;2022-09-01T04:36:04;0.40;;;0.40;;
23086;SDS011;11712;51.134;4.156;2022-09-01T04:38:31;0.40;;;0.40;;
23086;SDS011;11712;51.134;4.156;2022-09-01T04:41:04;0.40;;;0.40;;
23086;SDS011;11712;51.134;4.156;2022-09-01T04:43:31;0.40;;;0.40;;
23086;SDS011;11712;51.134;4.156;2022-09-01T04:45:57;0.40;;;0.40;;
23086;SDS011;11712;51.134;4.156;2022-09-01T04:48:23;0.40;;;0.40;;
23086;SDS011;11712;51.134;4.156;2022-09-01T04:50:51;0.43;;;0.43;;
23086;SDS011;11712;51.134;4.156;2022-09-01T04:53:17;0.40;;;0.40;;
23086;SDS011;11712;51.134;4.156;2022-09-01T04:55:43;0.40;;;0.40;;
23086;SDS011;11712;51.134;4.156;2022-09-01T04:58:12;0.40;;;0.40;;
23086;SDS011;11712;51.134;4.156;2022-09-01T05:00:42;0.40;;;0.40;;
23086;SDS011;11712;51.134;4.156;2022-09-01T05:03:09;0.40;;;0.40;;
23086;SDS011;11712;51.134;4.156;2022-09-01T05:05:43;0.40;;;0.40;;
23086;SDS011;11712;51.134;4.156;2022-09-01T05:08:14;0.40;;;0.40;;
23086;SDS011;11712;51.134;4.156;2022-09-01T05:10:47;0.40;;;0.40;;
23086;SDS011;11712;51.134;4.156;2022-09-01T05:13:16;0.40;;;0.40;;
23086;SDS011;11712;51.134;4.156;2022-09-01T05:15:44;0.40;;;0.40;;
23086;SDS011;11712;51.134;4.156;2022-09-01T05:18:16;0.40;;;0.40;;
23086;SDS011;11712;51.134;4.156;2022-09-01T05:20:53;0.40;;;0.40;;
23086;SDS011;11712;51.134;4.156;2022-09-01T05:23:19;0.47;;;0.47;;
23086;SDS011;11712;51.134;4.156;2022-09-01T05:25:46;0.40;;;0.40;;
23086;SDS011;11712;51.134;4.156;2022-09-01T05:28:14;0.40;;;0.40;;
23086;SDS011;11712;51.134;4.156;2022-09-01T05:30:42;0.40;;;0.40;;
23086;SDS011;11712;51.134;4.156;2022-09-01T05:33:10;0.40;;;0.40;;
23086;SDS011;11712;51.134;4.156;2022-09-01T05:35:40;0.40;;;0.40;;
23086;SDS011;11712;51.134;4.156;2022-09-01T05:38:09;0.40;;;0.40;;
23086;SDS011;11712;51.134;4.156;2022-09-01T05:40:41;0.40;;;0.40;;
23086;SDS011;11712;51.134;4.156;2022-09-01T05:43:09;0.47;;;0.47;;
23086;SDS011;11712;51.134;4.156;2022-09-01T05:45:37;0.40;;;0.40;;
23086;SDS011;11712;51.134;4.156;2022-09-01T05:48:07;0.40;;;0.40;;
23086;SDS011;11712;51.134;4.156;2022-09-01T05:50:33;0.40;;;0.40;;
23086;SDS011;11712;51.134;4.156;2022-09-01T05:53:00;0.40;;;0.40;;
23086;SDS011;11712;51.134;4.156;2022-09-01T05:55:27;0.40;;;0.40;;
23086;SDS011;11712;51.134;4.156;2022-09-01T05:57:59;0.40;;;0.40;;
23086;SDS011;11712;51.134;4.156;2022-09-01T06:00:25;0.40;;;0.40;;
23086;SDS011;11712;51.134;4.156;2022-09-01T06:02:59;0.40;;;0.40;;
23086;SDS011;11712;51.134;4.156;2022-09-01T06:05:28;0.40;;;0.40;;
23086;SDS011;11712;51.134;4.156;2022-09-01T06:07:56;0.40;;;0.40;;
23086;SDS011;11712;51.134;4.156;2022-09-01T06:10:21;0.40;;;0.40;;
23086;SDS011;11712;51.134;4.156;2022-09-01T06:12:47;0.40;;;0.40;;
23086;SDS011;11712;51.134;4.156;2022-09-01T06:15:17;0.40;;;0.40;;
23086;SDS011;11712;51.134;4.156;2022-09-01T06:17:45;0.40;;;0.40;;
23086;SDS011;11712;51.134;4.156;2022-09-01T06:20:11;0.40;;;0.40;;
23086;SDS011;11712;51.134;4.156;2022-09-01T06:22:37;0.40;;;0.40;;
23086;SDS011;11712;51.134;4.156;2022-09-01T06:25:05;0.40;;;0.40;;
23086;SDS011;11712;51.134;4.156;2022-09-01T06:27:32;0.40;;;0.40;;
23086;SDS011;11712;51.134;4.156;2022-09-01T06:30:03;0.50;;;0.50;;
23086;SDS011;11712;51.134;4.156;2022-09-01T06:32:39;0.40;;;0.40;;
23086;SDS011;11712;51.134;4.156;2022-09-01T06:35:07;0.43;;;0.43;;
23086;SDS011;11712;51.134;4.156;2022-09-01T06:37:37;0.40;;;0.40;;
23086;SDS011;11712;51.134;4.156;2022-09-01T06:40:04;0.40;;;0.40;;
23086;SDS011;11712;51.134;4.156;2022-09-01T06:42:34;0.40;;;0.40;;
23086;SDS011;11712;51.134;4.156;2022-09-01T06:45:02;0.40;;;0.40;;
23086;SDS011;11712;51.134;4.156;2022-09-01T06:47:28;0.40;;;0.40;;
23086;SDS011;11712;51.134;4.156;2022-09-01T06:49:55;0.40;;;0.40;;
23086;SDS011;11712;51.134;4.156;2022-09-01T06:52:23;0.40;;;0.40;;
23086;SDS011;11712;51.134;4.156;2022-09-01T06:54:49;0.40;;;0.40;;
23086;SDS011;11712;51.134;4.156;2022-09-01T06:57:17;0.40;;;0.40;;
23086;SDS011;11712;51.134;4.156;2022-09-01T06:59:43;0.40;;;0.40;;
23086;SDS011;11712;51.134;4.156;2022-09-01T07:02:10;0.40;;;0.40;;
23086;SDS011;11712;51.134;4.156;2022-09-01T07:04:40;0.40;;;0.40;;
23086;SDS011;11712;51.134;4.156;2022-09-01T07:07:11;0.40;;;0.40;;
23086;SDS011;11712;51.134;4.156;2022-09-01T07:09:37;0.40;;;0.40;;
23086;SDS011;11712;51.134;4.156;2022-09-01T07:12:04;0.40;;;0.40;;
23086;SDS011;11712;51.134;4.156;2022-09-01T07:14:31;0.40;;;0.40;;
23086;SDS011;11712;51.134;4.156;2022-09-01T07:16:56;0.40;;;0.40;;
23086;SDS011;11712;51.134;4.156;2022-09-01T07:19:22;0.40;;;0.40;;
23086;SDS011;11712;51.134;4.156;2022-09-01T07:21:50;0.40;;;0.40;;
23086;SDS011;11712;51.134;4.156;2022-09-01T07:24:16;0.40;;;0.40;;
23086;SDS011;11712;51.134;4.156;2022-09-01T07:26:43;0.40;;;0.40;;
23086;SDS011;11712;51.134;4.156;2022-09-01T07:29:13;0.40;;;0.40;;
23086;SDS011;11712;51.134;4.156;2022-09-01T07:31:40;0.40;;;0.40;;
23086;SDS011;11712;51.134;4.156;2022-09-01T07:34:08;0.40;;;0.40;;
23086;SDS011;11712;51.134;4.156;2022-09-01T07:36:37;0.40;;;0.40;;
23086;SDS011;11712;51.134;4.156;2022-09-01T07:39:04;0.40;;;0.40;;
23086;SDS011;11712;51.134;4.156;2022-09-01T07:41:30;0.40;;;0.40;;
23086;SDS011;11712;51.134;4.156;2022-09-01T07:43:59;0.40;;;0.40;;
23086;SDS011;11712;51.134;4.156;2022-09-01T07:46:27;0.40;;;0.40;;
23086;SDS011;11712;51.134;4.156;2022-09-01T07:48:56;0.40;;;0.40;;
23086;SDS011;11712;51.134;4.156;2022-09-01T07:51:23;0.40;;;0.40;;
23086;SDS011;11712;51.134;4.156;2022-09-01T07:53:50;0.40;;;0.40;;
23086;SDS011;11712;51.134;4.156;2022-09-01T07:56:17;0.35;;;0.35;;
23086;SDS011;11712;51.134;4.156;2022-09-01T07:58:45;0.40;;;0.40;;
23086;SDS011;11712;51.134;4.156;2022-09-01T08:01:23;0.30;;;0.30;;
23086;SDS011;11712;51.134;4.156;2022-09-01T08:03:53;0.35;;;0.35;;
23086;SDS011;11712;51.134;4.156;2022-09-01T08:06:21;0.30;;;0.30;;
23086;SDS011;11712;51.134;4.156;2022-09-01T08:08:50;0.40;;;0.40;;
23086;SDS011;11712;51.134;4.156;2022-09-01T08:11:18;0.30;;;0.30;;
23086;SDS011;11712;51.134;4.156;2022-09-01T08:13:47;0.40;;;0.40;;
23086;SDS011;11712;51.134;4.156;2022-09-01T08:16:13;0.40;;;0.40;;
23086;SDS011;11712;51.134;4.156;2022-09-01T08:18:39;0.40;;;0.40;;
23086;SDS011;11712;51.134;4.156;2022-09-01T08:21:06;0.40;;;0.40;;
23086;SDS011;11712;51.134;4.156;2022-09-01T08:23:33;0.30;;;0.30;;
23086;SDS011;11712;51.134;4.156;2022-09-01T08:26:03;0.35;;;0.35;;
23086;SDS011;11712;51.134;4.156;2022-09-01T08:28:30;0.30;;;0.30;;
23086;SDS011;11712;51.134;4.156;2022-09-01T08:30:57;0.30;;;0.30;;
23086;SDS011;11712;51.134;4.156;2022-09-01T08:33:25;0.47;;;0.47;;
23086;SDS011;11712;51.134;4.156;2022-09-01T08:35:51;0.30;;;0.30;;
23086;SDS011;11712;51.134;4.156;2022-09-01T08:38:18;0.40;;;0.40;;
23086;SDS011;11712;51.134;4.156;2022-09-01T08:40:49;0.30;;;0.30;;
23086;SDS011;11712;51.134;4.156;2022-09-01T08:43:21;0.40;;;0.40;;
23086;SDS011;11712;51.134;4.156;2022-09-01T08:46:12;0.40;;;0.40;;
23086;SDS011;11712;51.134;4.156;2022-09-01T08:48:47;0.32;;;0.32;;
23086;SDS011;11712;51.134;4.156;2022-09-01T08:51:29;0.35;;;0.35;;
23086;SDS011;11712;51.134;4.156;2022-09-01T08:56:51;0.38;;;0.38;;
23086;SDS011;11712;51.134;4.156;2022-09-01T08:59:20;0.40;;;0.40;;
23086;SDS011;11712;51.134;4.156;2022-09-01T09:06:50;0.30;;;0.30;;
23086;SDS011;11712;51.134;4.156;2022-09-01T09:12:29;0.30;;;0.30;;
23086;SDS011;11712;51.134;4.156;2022-09-01T09:15:21;0.30;;;0.30;;
23086;SDS011;11712;51.134;4.156;2022-09-01T09:18:02;0.30;;;0.30;;
23086;SDS011;11712;51.134;4.156;2022-09-01T09:20:43;0.40;;;0.40;;
23086;SDS011;11712;51.134;4.156;2022-09-01T09:23:14;0.30;;;0.30;;
23086;SDS011;11712;51.134;4.156;2022-09-01T09:25:48;0.30;;;0.30;;
23086;SDS011;11712;51.134;4.156;2022-09-01T09:28:14;0.30;;;0.30;;
23086;SDS011;11712;51.134;4.156;2022-09-01T09:30:40;0.30;;;0.30;;
23086;SDS011;11712;51.134;4.156;2022-09-01T09:33:06;0.30;;;0.30;;
23086;SDS011;11712;51.134;4.156;2022-09-01T09:39:33;0.30;;;0.30;;
23086;SDS011;11712;51.134;4.156;2022-09-01T09:42:04;0.30;;;0.30;;
23086;SDS011;11712;51.134;4.156;2022-09-01T09:44:37;0.30;;;0.30;;
23086;SDS011;11712;51.134;4.156;2022-09-01T09:47:36;0.30;;;0.30;;
23086;SDS011;11712;51.134;4.156;2022-09-01T09:53:14;0.30;;;0.30;;
23086;SDS011;11712;51.134;4.156;2022-09-01T09:58:40;0.30;;;0.30;;
23086;SDS011;11712;51.134;4.156;2022-09-01T10:03:47;0.30;;;0.30;;
23086;SDS011;11712;51.134;4.156;2022-09-01T10:06:36;0.30;;;0.30;;
23086;SDS011;11712;51.134;4.156;2022-09-01T10:09:51;0.30;;;0.30;;
23086;SDS011;11712;51.134;4.156;2022-09-01T10:11:53;0.30;;;0.30;;
23086;SDS011;11712;51.134;4.156;2022-09-01T10:14:30;0.30;;;0.30;;
23086;SDS011;11712;51.134;4.156;2022-09-01T10:17:12;0.30;;;0.30;;
23086;SDS011;11712;51.134;4.156;2022-09-01T10:19:58;0.30;;;0.30;;
23086;SDS011;11712;51.134;4.156;2022-09-01T10:22:32;0.30;;;0.30;;
23086;SDS011;11712;51.134;4.156;2022-09-01T10:25:00;0.30;;;0.30;;
23086;SDS011;11712;51.134;4.156;2022-09-01T10:27:31;0.30;;;0.30;;
23086;SDS011;11712;51.134;4.156;2022-09-01T10:32:31;0.30;;;0.30;;
23086;SDS011;11712;51.134;4.156;2022-09-01T10:35:02;0.30;;;0.30;;
23086;SDS011;11712;51.134;4.156;2022-09-01T10:37:29;0.30;;;0.30;;
23086;SDS011;11712;51.134;4.156;2022-09-01T10:42:33;0.30;;;0.30;;
23086;SDS011;11712;51.134;4.156;2022-09-01T10:44:59;0.30;;;0.30;;
23086;SDS011;11712;51.134;4.156;2022-09-01T10:47:28;0.30;;;0.30;;
23086;SDS011;11712;51.134;4.156;2022-09-01T10:52:57;0.30;;;0.30;;
23086;SDS011;11712;51.134;4.156;2022-09-01T10:55:25;0.30;;;0.30;;
23086;SDS011;11712;51.134;4.156;2022-09-01T10:58:00;0.30;;;0.30;;
23086;SDS011;11712;51.134;4.156;2022-09-01T11:00:43;0.30;;;0.30;;
23086;SDS011;11712;51.134;4.156;2022-09-01T11:13:46;0.30;;;0.30;;
23086;SDS011;11712;51.134;4.156;2022-09-01T11:16:23;0.30;;;0.30;;
23086;SDS011;11712;51.134;4.156;2022-09-01T11:18:49;0.25;;;0.25;;
23086;SDS011;11712;51.134;4.156;2022-09-01T11:21:22;0.30;;;0.30;;
23086;SDS011;11712;51.134;4.156;2022-09-01T11:26:57;0.30;;;0.30;;
23086;SDS011;11712;51.134;4.156;2022-09-01T11:32:26;0.30;;;0.30;;
23086;SDS011;11712;51.134;4.156;2022-09-01T11:34:58;0.30;;;0.30;;
23086;SDS011;11712;51.134;4.156;2022-09-01T11:37:54;0.30;;;0.30;;
23086;SDS011;11712;51.134;4.156;2022-09-01T11:40:26;0.30;;;0.30;;
23086;SDS011;11712;51.134;4.156;2022-09-01T11:42:55;0.30;;;0.30;;
23086;SDS011;11712;51.134;4.156;2022-09-01T11:45:27;0.25;;;0.25;;
23086;SDS011;11712;51.134;4.156;2022-09-01T11:47:57;0.30;;;0.30;;
23086;SDS011;11712;51.134;4.156;2022-09-01T11:50:30;0.30;;;0.30;;
23086;SDS011;11712;51.134;4.156;2022-09-01T11:52:59;0.30;;;0.30;;
23086;SDS011;11712;51.134;4.156;2022-09-01T11:55:30;0.30;;;0.30;;
23086;SDS011;11712;51.134;4.156;2022-09-01T11:58:01;0.30;;;0.30;;
23086;SDS011;11712;51.134;4.156;2022-09-01T12:00:29;0.30;;;0.30;;
23086;SDS011;11712;51.134;4.156;2022-09-01T12:02:57;0.30;;;0.30;;
23086;SDS011;11712;51.134;4.156;2022-09-01T12:05:29;0.30;;;0.30;;
23086;SDS011;11712;51.134;4.156;2022-09-01T12:07:58;0.30;;;0.30;;
23086;SDS011;11712;51.134;4.156;2022-09-01T12:13:03;0.30;;;0.30;;
23086;SDS011;11712;51.134;4.156;2022-09-01T12:15:30;0.30;;;0.30;;
23086;SDS011;11712;51.134;4.156;2022-09-01T12:18:16;0.30;;;0.30;;
23086;SDS011;11712;51.134;4.156;2022-09-01T12:20:46;0.30;;;0.30;;
23086;SDS011;11712;51.134;4.156;2022-09-01T12:23:27;0.30;;;0.30;;
23086;SDS011;11712;51.134;4.156;2022-09-01T12:25:55;0.30;;;0.30;;
23086;SDS011;11712;51.134;4.156;2022-09-01T12:28:23;0.30;;;0.30;;
23086;SDS011;11712;51.134;4.156;2022-09-01T12:30:51;0.30;;;0.30;;
23086;SDS011;11712;51.134;4.156;2022-09-01T12:33:19;0.30;;;0.30;;
23086;SDS011;11712;51.134;4.156;2022-09-01T12:35:46;0.20;;;0.20;;
23086;SDS011;11712;51.134;4.156;2022-09-01T12:38:30;0.30;;;0.30;;
23086;SDS011;11712;51.134;4.156;2022-09-01T12:40:56;0.30;;;0.30;;
23086;SDS011;11712;51.134;4.156;2022-09-01T12:43:36;0.30;;;0.30;;
23086;SDS011;11712;51.134;4.156;2022-09-01T12:46:04;0.30;;;0.30;;
23086;SDS011;11712;51.134;4.156;2022-09-01T12:51:02;0.28;;;0.28;;
23086;SDS011;11712;51.134;4.156;2022-09-01T12:53:52;0.30;;;0.30;;
23086;SDS011;11712;51.134;4.156;2022-09-01T12:56:30;0.30;;;0.30;;
23086;SDS011;11712;51.134;4.156;2022-09-01T12:59:03;0.30;;;0.30;;
23086;SDS011;11712;51.134;4.156;2022-09-01T13:01:32;0.30;;;0.30;;
23086;SDS011;11712;51.134;4.156;2022-09-01T13:04:32;0.30;;;0.30;;
23086;SDS011;11712;51.134;4.156;2022-09-01T13:07:02;0.30;;;0.30;;
23086;SDS011;11712;51.134;4.156;2022-09-01T13:09:29;0.30;;;0.30;;
23086;SDS011;11712;51.134;4.156;2022-09-01T13:12:13;0.30;;;0.30;;
23086;SDS011;11712;51.134;4.156;2022-09-01T13:14:42;0.30;;;0.30;;
23086;SDS011;11712;51.134;4.156;2022-09-01T13:17:07;0.30;;;0.30;;
23086;SDS011;11712;51.134;4.156;2022-09-01T13:19:33;0.30;;;0.30;;
23086;SDS011;11712;51.134;4.156;2022-09-01T13:21:59;0.30;;;0.30;;
23086;SDS011;11712;51.134;4.156;2022-09-01T13:24:24;0.30;;;0.30;;
23086;SDS011;11712;51.134;4.156;2022-09-01T13:26:50;0.20;;;0.20;;
23086;SDS011;11712;51.134;4.156;2022-09-01T13:29:21;0.30;;;0.30;;
23086;SDS011;11712;51.134;4.156;2022-09-01T13:31:47;0.30;;;0.30;;
23086;SDS011;11712;51.134;4.156;2022-09-01T13:34:13;0.30;;;0.30;;
23086;SDS011;11712;51.134;4.156;2022-09-01T13:36:39;0.30;;;0.30;;
23086;SDS011;11712;51.134;4.156;2022-09-01T13:39:05;0.30;;;0.30;;
23086;SDS011;11712;51.134;4.156;2022-09-01T13:41:30;0.30;;;0.30;;
23086;SDS011;11712;51.134;4.156;2022-09-01T13:43:56;0.30;;;0.30;;
23086;SDS011;11712;51.134;4.156;2022-09-01T13:46:22;0.30;;;0.30;;
23086;SDS011;11712;51.134;4.156;2022-09-01T13:48:48;0.30;;;0.30;;
23086;SDS011;11712;51.134;4.156;2022-09-01T13:51:23;0.30;;;0.30;;
23086;SDS011;11712;51.134;4.156;2022-09-01T13:53:50;0.30;;;0.30;;
23086;SDS011;11712;51.134;4.156;2022-09-01T13:56:16;0.30;;;0.30;;
23086;SDS011;11712;51.134;4.156;2022-09-01T13:58:42;0.30;;;0.30;;
23086;SDS011;11712;51.134;4.156;2022-09-01T14:01:08;0.30;;;0.30;;
23086;SDS011;11712;51.134;4.156;2022-09-01T14:03:34;0.30;;;0.30;;
23086;SDS011;11712;51.134;4.156;2022-09-01T14:06:00;0.20;;;0.20;;
23086;SDS011;11712;51.134;4.156;2022-09-01T14:08:26;0.30;;;0.30;;
23086;SDS011;11712;51.134;4.156;2022-09-01T14:10:52;0.30;;;0.30;;
23086;SDS011;11712;51.134;4.156;2022-09-01T14:13:18;0.30;;;0.30;;
23086;SDS011;11712;51.134;4.156;2022-09-01T14:15:46;0.30;;;0.30;;
23086;SDS011;11712;51.134;4.156;2022-09-01T14:18:13;0.30;;;0.30;;
23086;SDS011;11712;51.134;4.156;2022-09-01T14:20:41;0.30;;;0.30;;
23086;SDS011;11712;51.134;4.156;2022-09-01T14:23:09;0.30;;;0.30;;
23086;SDS011;11712;51.134;4.156;2022-09-01T14:25:35;0.30;;;0.30;;
23086;SDS011;11712;51.134;4.156;2022-09-01T14:28:06;0.30;;;0.30;;
23086;SDS011;11712;51.134;4.156;2022-09-01T14:30:33;0.30;;;0.30;;
23086;SDS011;11712;51.134;4.156;2022-09-01T14:32:59;0.30;;;0.30;;
23086;SDS011;11712;51.134;4.156;2022-09-01T14:35:25;0.30;;;0.30;;
23086;SDS011;11712;51.134;4.156;2022-09-01T14:37:52;0.20;;;0.20;;
23086;SDS011;11712;51.134;4.156;2022-09-01T14:40:18;0.30;;;0.30;;
23086;SDS011;11712;51.134;4.156;2022-09-01T14:42:47;0.30;;;0.30;;
23086;SDS011;11712;51.134;4.156;2022-09-01T14:45:24;0.30;;;0.30;;
23086;SDS011;11712;51.134;4.156;2022-09-01T14:47:53;0.30;;;0.30;;
23086;SDS011;11712;51.134;4.156;2022-09-01T14:50:21;0.28;;;0.28;;
23086;SDS011;11712;51.134;4.156;2022-09-01T14:52:47;0.20;;;0.20;;
23086;SDS011;11712;51.134;4.156;2022-09-01T14:55:14;0.30;;;0.30;;
23086;SDS011;11712;51.134;4.156;2022-09-01T14:57:40;0.30;;;0.30;;
23086;SDS011;11712;51.134;4.156;2022-09-01T15:00:07;0.20;;;0.20;;
23086;SDS011;11712;51.134;4.156;2022-09-01T15:02:36;0.20;;;0.20;;
23086;SDS011;11712;51.134;4.156;2022-09-01T15:05:03;0.30;;;0.30;;
23086;SDS011;11712;51.134;4.156;2022-09-01T15:07:29;0.28;;;0.28;;
23086;SDS011;11712;51.134;4.156;2022-09-01T15:09:54;0.25;;;0.25;;
23086;SDS011;11712;51.134;4.156;2022-09-01T15:12:22;0.20;;;0.20;;
23086;SDS011;11712;51.134;4.156;2022-09-01T15:14:49;0.30;;;0.30;;
23086;SDS011;11712;51.134;4.156;2022-09-01T15:17:15;0.25;;;0.25;;
23086;SDS011;11712;51.134;4.156;2022-09-01T15:19:40;0.20;;;0.20;;
23086;SDS011;11712;51.134;4.156;2022-09-01T15:22:06;0.28;;;0.28;;
23086;SDS011;11712;51.134;4.156;2022-09-01T15:24:33;0.30;;;0.30;;
23086;SDS011;11712;51.134;4.156;2022-09-01T15:26:58;0.20;;;0.20;;
23086;SDS011;11712;51.134;4.156;2022-09-01T15:29:24;0.20;;;0.20;;
23086;SDS011;11712;51.134;4.156;2022-09-01T15:31:50;0.28;;;0.28;;
23086;SDS011;11712;51.134;4.156;2022-09-01T15:34:17;0.30;;;0.30;;
23086;SDS011;11712;51.134;4.156;2022-09-01T15:36:43;0.30;;;0.30;;
23086;SDS011;11712;51.134;4.156;2022-09-01T15:39:09;0.20;;;0.20;;
23086;SDS011;11712;51.134;4.156;2022-09-01T15:41:35;0.30;;;0.30;;
23086;SDS011;11712;51.134;4.156;2022-09-01T15:44:03;0.25;;;0.25;;
23086;SDS011;11712;51.134;4.156;2022-09-01T15:46:31;0.30;;;0.30;;
23086;SDS011;11712;51.134;4.156;2022-09-01T15:48:58;0.30;;;0.30;;
23086;SDS011;11712;51.134;4.156;2022-09-01T15:53:55;0.30;;;0.30;;
23086;SDS011;11712;51.134;4.156;2022-09-01T15:56:22;0.30;;;0.30;;
23086;SDS011;11712;51.134;4.156;2022-09-01T15:58:48;0.20;;;0.20;;